Time;durP1;ratioP1;P1;durP2;ratioP2;P2;SDS_P1;SDS_P2;PMS_P1;PMS_P2;Temp;Humidity;BMP_temperature;BMP_pressure;BME280_temperature;BME280_humidity;BME280_pressure;Samples;Min_cycle;Max_cycle;Signal;HPM_P1;HPM_P2
2023/08/09 00:02:28;;;;;;;1.77;1.27;;;;;;;-146.07;100.00;70291.31;10537848;28;20243;-65
2023/08/09 00:07:28;;;;;;;1.38;1.17;;;;;;;-146.07;100.00;70291.31;10544734;28;20269;-66
2023/08/09 00:12:29;;;;;;;3.22;1.55;;;;;;;-146.07;100.00;70291.31;10546187;28;20032;-66
2023/08/09 00:17:29;;;;;;;1.75;1.23;;;;;;;-146.07;100.00;70291.31;10545934;28;20027;-65
2023/08/09 00:22:30;;;;;;;2.40;1.57;;;;;;;-146.07;100.00;70291.31;10544511;28;20059;-65
2023/08/09 00:27:31;;;;;;;3.90;1.40;;;;;;;-146.07;100.00;70291.31;10545971;28;20356;-66
2023/08/09 00:32:32;;;;;;;2.05;1.40;;;;;;;-146.07;100.00;70291.31;10544985;28;20151;-65
2023/08/09 00:37:32;;;;;;;1.70;1.60;;;;;;;-146.07;100.00;70291.31;10545420;28;20040;-64
2023/08/09 00:42:36;;;;;;;1.70;1.60;;;;;;;-146.07;100.00;70291.31;10544947;28;20035;-65
2023/08/09 00:47:36;;;;;;;3.78;1.95;;;;;;;-146.07;100.00;70291.31;10544784;28;20100;-65
2023/08/09 00:52:37;;;;;;;2.13;1.23;;;;;;;-146.07;100.00;70291.31;10544662;28;20055;-65
2023/08/09 00:57:38;;;;;;;2.92;1.33;;;;;;;-146.07;100.00;70291.31;10544220;28;20471;-64
2023/08/09 01:02:38;;;;;;;5.28;1.60;;;;;;;-146.07;100.00;70291.31;10545052;28;20314;-65
2023/08/09 01:07:53;;;;;;;6.30;1.42;;;;;;;-146.07;100.00;70291.31;10543781;28;20023;-65
2023/08/09 01:13:01;;;;;;;1.70;1.60;;;;;;;-146.07;100.00;70291.31;10542281;28;20099;-65
2023/08/09 01:18:04;;;;;;;2.47;1.93;;;;;;;-146.07;100.00;70291.31;10543426;28;20035;-65
2023/08/09 01:23:30;;;;;;;2.35;1.67;;;;;;;-146.07;100.00;70291.31;10543776;28;20575;-64
2023/08/09 01:28:31;;;;;;;2.33;1.50;;;;;;;-146.07;100.00;70291.31;10534943;28;20084;-65
2023/08/09 01:33:32;;;;;;;1.80;1.40;;;;;;;-146.07;100.00;70291.31;10543991;28;20028;-65
2023/08/09 01:38:40;;;;;;;3.15;2.00;;;;;;;-146.07;100.00;70291.31;10543163;28;20095;-64
2023/08/09 01:43:43;;;;;;;2.40;1.50;;;;;;;-146.07;100.00;70291.31;10543016;28;20100;-64
2023/08/09 01:48:43;;;;;;;2.53;1.60;;;;;;;-146.07;100.00;70291.31;10542950;28;20055;-63
2023/08/09 01:53:44;;;;;;;2.08;1.85;;;;;;;-146.07;100.00;70291.31;10543458;28;20020;-64
2023/08/09 01:58:45;;;;;;;1.67;1.55;;;;;;;-146.07;100.00;70291.31;10542109;28;20352;-66
2023/08/09 02:03:45;;;;;;;3.87;2.70;;;;;;;-146.07;100.00;70291.31;10542602;28;20203;-65
2023/08/09 02:08:46;;;;;;;3.20;2.73;;;;;;;-146.07;100.00;70291.31;10541878;28;20620;-66
2023/08/09 02:13:47;;;;;;;2.73;2.50;;;;;;;-146.07;100.00;70291.31;10541924;28;20301;-65
2023/08/09 02:18:48;;;;;;;2.88;2.55;;;;;;;-146.07;100.00;70291.31;10542107;28;20274;-66
2023/08/09 02:23:48;;;;;;;3.50;2.88;;;;;;;-146.07;100.00;70291.31;10541735;28;20067;-66
2023/08/09 02:28:49;;;;;;;4.13;3.00;;;;;;;-146.07;100.00;70291.31;10540888;28;20039;-65
2023/08/09 02:33:50;;;;;;;3.33;2.72;;;;;;;-146.07;100.00;70291.31;10540657;28;20286;-65
2023/08/09 02:38:51;;;;;;;7.72;3.35;;;;;;;-146.07;100.00;70291.31;10540286;28;20024;-65
2023/08/09 02:43:51;;;;;;;8.98;3.72;;;;;;;-146.07;100.00;70291.31;10540498;28;20161;-64
2023/08/09 02:48:52;;;;;;;3.67;3.27;;;;;;;-146.07;100.00;70291.31;10540696;28;20073;-65
2023/08/09 02:54:04;;;;;;;4.18;3.75;;;;;;;-146.07;100.00;70291.31;10539938;28;20281;-66
2023/08/09 02:59:05;;;;;;;4.03;3.63;;;;;;;-146.07;100.00;70291.31;10540294;28;20373;-65
2023/08/09 03:04:05;;;;;;;6.13;4.65;;;;;;;-146.07;100.00;70291.31;10538341;28;20027;-65
2023/08/09 03:09:06;;;;;;;4.47;4.00;;;;;;;-146.07;100.00;70291.31;10540054;28;20061;-64
2023/08/09 03:14:07;;;;;;;4.10;3.55;;;;;;;-146.07;100.00;70291.31;10539969;28;20527;-65
2023/08/09 03:19:08;;;;;;;4.05;3.35;;;;;;;-146.07;100.00;70291.31;10539140;28;20024;-65
2023/08/09 03:24:10;;;;;;;4.90;3.70;;;;;;;-146.07;100.00;70291.31;10539041;28;20105;-65
2023/08/09 03:29:10;;;;;;;3.45;3.15;;;;;;;-146.07;100.00;70291.31;10539459;28;20601;-65
2023/08/09 03:34:11;;;;;;;5.60;4.03;;;;;;;-146.07;100.00;70291.31;10538878;28;20073;-65
2023/08/09 03:39:11;;;;;;;7.22;3.90;;;;;;;-146.07;100.00;70291.31;10537970;28;20028;-64
2023/08/09 03:44:13;;;;;;;4.93;3.88;;;;;;;-146.07;100.00;70291.31;10538892;28;20024;-64
2023/08/09 03:49:13;;;;;;;4.93;3.63;;;;;;;-146.07;100.00;70291.31;10538321;28;20016;-64
2023/08/09 03:54:14;;;;;;;4.15;3.60;;;;;;;-146.07;100.00;70291.31;10539275;28;20268;-65
2023/08/09 03:59:15;;;;;;;7.35;3.50;;;;;;;-146.07;100.00;70291.31;10521138;28;20218;-66
2023/08/09 04:04:15;;;;;;;4.60;3.33;;;;;;;-146.07;100.00;70291.31;10532235;28;20020;-66
2023/08/09 04:09:16;;;;;;;5.72;3.47;;;;;;;-146.07;100.00;70291.31;10499256;28;20040;-65
2023/08/09 04:14:16;;;;;;;9.80;4.10;;;;;;;-146.07;100.00;70291.31;10504996;28;20241;-64
2023/08/09 04:19:17;;;;;;;7.97;4.03;;;;;;;-146.07;100.00;70291.31;10525628;28;20016;-71
2023/08/09 04:24:18;;;;;;;5.40;3.30;;;;;;;-146.07;100.00;70291.31;10502682;28;20294;-65
2023/08/09 04:29:18;;;;;;;7.97;3.63;;;;;;;-146.07;100.00;70291.31;10496347;28;20044;-65
2023/08/09 04:34:19;;;;;;;6.37;3.40;;;;;;;-146.07;100.00;70291.31;10516790;28;20032;-66
2023/08/09 04:39:19;;;;;;;4.47;3.47;;;;;;;-146.07;100.00;70291.31;10537733;28;20494;-66
2023/08/09 04:44:20;;;;;;;6.07;3.07;;;;;;;-146.07;100.00;70291.31;10537831;28;20269;-65
2023/08/09 04:49:20;;;;;;;4.38;3.50;;;;;;;-146.07;100.00;70291.31;10517361;28;20293;-65
2023/08/09 04:54:21;;;;;;;3.70;3.38;;;;;;;-146.07;100.00;70291.31;10508151;28;20391;-65
2023/08/09 04:59:21;;;;;;;3.53;3.22;;;;;;;-146.07;100.00;70291.31;10542965;28;20306;-66
2023/08/09 05:04:21;;;;;;;3.40;2.73;;;;;;;-146.07;100.00;70291.31;10543226;28;20433;-65
2023/08/09 05:09:22;;;;;;;4.33;2.73;;;;;;;-146.07;100.00;70291.31;10543651;28;20272;-65
2023/08/09 05:14:22;;;;;;;4.43;3.00;;;;;;;-146.07;100.00;70291.31;10543741;28;20077;-65
2023/08/09 05:19:23;;;;;;;4.68;2.55;;;;;;;-146.07;100.00;70291.31;10539713;28;20327;-66
2023/08/09 05:24:23;;;;;;;2.95;2.38;;;;;;;-146.07;100.00;70291.31;10539600;28;20211;-66
2023/08/09 05:29:23;;;;;;;5.63;2.40;;;;;;;-146.07;100.00;70291.31;10540484;28;20024;-66
2023/08/09 05:34:24;;;;;;;3.63;2.70;;;;;;;-146.07;100.00;70291.31;10542447;28;20286;-66
2023/08/09 05:39:24;;;;;;;2.57;2.07;;;;;;;-146.07;100.00;70291.31;10542349;28;20358;-65
2023/08/09 05:44:26;;;;;;;2.15;1.95;;;;;;;-146.07;100.00;70291.31;10542494;28;20555;-67
2023/08/09 05:49:26;;;;;;;2.42;2.15;;;;;;;-146.07;100.00;70291.31;10541524;28;20108;-67
2023/08/09 05:54:27;;;;;;;4.80;2.20;;;;;;;-146.07;100.00;70291.31;10542328;28;20031;-66
2023/08/09 05:59:27;;;;;;;4.63;2.40;;;;;;;-146.07;100.00;70291.31;10542394;28;20171;-66
2023/08/09 06:04:28;;;;;;;3.10;2.40;;;;;;;-146.07;100.00;70291.31;10541427;28;20183;-66
2023/08/09 06:09:28;;;;;;;4.60;2.70;;;;;;;-146.07;100.00;70291.31;10542087;28;20183;-66
2023/08/09 06:14:29;;;;;;;7.20;2.63;;;;;;;-146.07;100.00;70291.31;10541842;28;20411;-66
2023/08/09 06:19:29;;;;;;;3.70;2.63;;;;;;;-146.07;100.00;70291.31;10540991;28;20027;-66
2023/08/09 06:24:29;;;;;;;6.95;2.97;;;;;;;-146.07;100.00;70291.31;10541410;28;20305;-65
2023/08/09 06:29:30;;;;;;;5.70;2.33;;;;;;;-146.07;100.00;70291.31;10539248;28;20283;-66
2023/08/09 06:34:30;;;;;;;5.20;2.40;;;;;;;-146.07;100.00;70291.31;10541248;28;20248;-65
2023/08/09 06:39:33;;;;;;;3.50;2.13;;;;;;;-146.07;100.00;70291.31;10539331;28;20023;-66
2023/08/09 06:44:34;;;;;;;3.83;2.35;;;;;;;-146.07;100.00;70291.31;10539281;28;20293;-65
2023/08/09 06:49:35;;;;;;;3.15;2.05;;;;;;;-146.07;100.00;70291.31;10539939;28;20042;-66
2023/08/09 06:54:35;;;;;;;3.30;2.03;;;;;;;-146.07;100.00;70291.31;10540454;28;20087;-65
2023/08/09 06:59:36;;;;;;;2.97;1.83;;;;;;;-146.07;100.00;70291.31;10539649;28;20281;-65
2023/08/09 07:04:36;;;;;;;4.30;1.98;;;;;;;-146.07;100.00;70291.31;10540950;28;20594;-66
2023/08/09 07:09:37;;;;;;;4.88;1.70;;;;;;;-146.07;100.00;70291.31;10539338;28;20016;-65
2023/08/09 07:14:37;;;;;;;8.70;1.70;;;;;;;-146.07;100.00;70291.31;10539145;28;20024;-65
2023/08/09 07:19:38;;;;;;;5.72;1.58;;;;;;;-146.07;100.00;70291.31;10538971;28;20310;-67
2023/08/09 07:24:38;;;;;;;5.87;1.50;;;;;;;-146.07;100.00;70291.31;10538620;28;20048;-66
2023/08/09 07:29:39;;;;;;;4.50;1.13;;;;;;;-146.07;100.00;70291.31;10538470;28;20059;-66
2023/08/09 07:34:40;;;;;;;4.15;1.20;;;;;;;-146.07;100.00;70291.31;10538721;28;20256;-67
2023/08/09 07:39:40;;;;;;;2.47;1.10;;;;;;;-146.07;100.00;70291.31;10539021;28;20259;-66
2023/08/09 07:44:40;;;;;;;2.90;1.13;;;;;;;-146.07;100.00;70291.31;10538772;28;20288;-66
2023/08/09 07:49:41;;;;;;;3.30;1.13;;;;;;;-146.07;100.00;70291.31;10538520;28;20269;-64
2023/08/09 07:54:43;;;;;;;1.98;1.33;;;;;;;-146.07;100.00;70291.31;10537917;28;20329;-67
2023/08/09 07:59:44;;;;;;;1.45;1.08;;;;;;;-146.07;100.00;70291.31;10538856;28;20099;-66
2023/08/09 08:04:45;;;;;;;1.20;1.00;;;;;;;-146.07;100.00;70291.31;10538716;28;20198;-66
2023/08/09 08:09:45;;;;;;;1.43;1.03;;;;;;;-146.07;100.00;70291.31;10536526;28;20020;-65
2023/08/09 08:14:46;;;;;;;4.60;1.50;;;;;;;-146.07;100.00;70291.31;10538000;28;20035;-65
2023/08/09 08:19:46;;;;;;;3.80;1.23;;;;;;;-146.07;100.00;70291.31;10537737;28;20024;-66
2023/08/09 08:24:47;;;;;;;3.67;1.03;;;;;;;-146.07;100.00;70291.31;10538338;28;20094;-65
2023/08/09 08:29:47;;;;;;;4.83;0.93;;;;;;;-146.07;100.00;70291.31;10545806;28;20342;-66
2023/08/09 08:34:47;;;;;;;6.30;0.90;;;;;;;-146.07;100.00;70291.31;10544981;28;20183;-67
2023/08/09 08:39:48;;;;;;;5.50;1.40;;;;;;;-146.07;100.00;70291.31;10545929;28;20341;-65
2023/08/09 08:44:49;;;;;;;1.30;1.00;;;;;;;-146.07;100.00;70291.31;10545303;28;20075;-65
2023/08/09 08:49:50;;;;;;;3.47;0.90;;;;;;;-146.07;100.00;70291.31;10544453;28;20054;-66
2023/08/09 08:54:51;;;;;;;2.75;0.75;;;;;;;-146.07;100.00;70291.31;10544819;28;20024;-65
2023/08/09 08:59:52;;;;;;;2.25;0.88;;;;;;;-146.07;100.00;70291.31;10544512;28;20024;-66
2023/08/09 09:04:53;;;;;;;3.05;0.98;;;;;;;-146.07;100.00;70291.31;10543943;28;20040;-65
2023/08/09 09:10:00;;;;;;;1.33;0.90;;;;;;;-146.07;100.00;70291.31;10544525;28;20202;-66
2023/08/09 09:15:03;;;;;;;1.02;0.60;;;;;;;-146.07;100.00;70291.31;10543983;28;20633;-66
2023/08/09 09:20:13;;;;;;;2.03;0.70;;;;;;;-146.07;100.00;70291.31;10544089;28;20108;-66
2023/08/09 09:25:15;;;;;;;1.38;0.70;;;;;;;-146.07;100.00;70291.31;10523848;28;20043;-66
2023/08/09 09:30:19;;;;;;;0.93;0.77;;;;;;;-146.07;100.00;70291.31;10545178;28;20026;-66
2023/08/09 09:35:28;;;;;;;1.77;0.60;;;;;;;-146.07;100.00;70291.31;10542335;28;20195;-65
2023/08/09 09:40:33;;;;;;;2.22;1.00;;;;;;;-146.07;100.00;70291.31;10544111;28;20077;-66
2023/08/09 09:45:36;;;;;;;1.13;0.70;;;;;;;-146.07;100.00;70291.31;10542387;28;20012;-66
2023/08/09 09:50:38;;;;;;;1.27;0.82;;;;;;;-146.07;100.00;70291.31;10542967;28;20046;-66
2023/08/09 09:55:40;;;;;;;1.95;0.50;;;;;;;-146.07;100.00;70291.31;10542405;28;20020;-66
2023/08/09 10:00:47;;;;;;;2.38;0.52;;;;;;;-146.07;100.00;70291.31;10542512;28;20119;-66
2023/08/09 10:05:49;;;;;;;3.90;1.52;;;;;;;-146.07;100.00;70291.31;10541633;28;20314;-66
2023/08/09 10:10:51;;;;;;;0.73;0.73;;;;;;;-146.07;100.00;70291.31;10541778;28;20032;-66
2023/08/09 10:15:59;;;;;;;2.05;0.50;;;;;;;-146.07;100.00;70291.31;10541371;28;20402;-66
2023/08/09 10:21:01;;;;;;;1.15;0.77;;;;;;;-146.07;100.00;70291.31;10541146;28;20070;-66
2023/08/09 10:26:01;;;;;;;0.85;0.65;;;;;;;-146.07;100.00;70291.31;10579419;28;20061;-66
2023/08/09 10:31:02;;;;;;;3.42;0.80;;;;;;;-146.07;100.00;70291.31;10582774;28;20016;-66
2023/08/09 10:36:03;;;;;;;1.58;0.75;;;;;;;-146.07;100.00;70291.31;10582802;28;20031;-65
2023/08/09 10:41:09;;;;;;;0.85;0.68;;;;;;;-146.07;100.00;70291.31;10583734;28;20027;-65
2023/08/09 10:46:24;;;;;;;1.10;0.80;;;;;;;-146.07;100.00;70291.31;10582556;28;20038;-66
2023/08/09 10:51:25;;;;;;;6.28;1.10;;;;;;;-146.07;100.00;70291.31;10582145;28;20288;-66
2023/08/09 10:56:40;;;;;;;2.58;0.80;;;;;;;-146.07;100.00;70291.31;10581960;28;20213;-66
2023/08/09 11:01:42;;;;;;;1.10;0.73;;;;;;;-146.07;100.00;70291.31;10582441;28;20230;-66
2023/08/09 11:06:44;;;;;;;1.23;0.77;;;;;;;-146.07;100.00;70291.31;10581690;28;20032;-66
2023/08/09 11:11:47;;;;;;;1.00;0.50;;;;;;;-146.07;100.00;70291.31;10581797;28;20237;-65
2023/08/09 11:16:49;;;;;;;0.88;0.60;;;;;;;-146.07;100.00;70291.31;10555353;28;20098;-67
2023/08/09 11:21:52;;;;;;;0.88;0.60;;;;;;;-146.07;100.00;70291.31;10529308;28;20062;-72
2023/08/09 11:26:55;;;;;;;0.93;0.70;;;;;;;-146.07;100.00;70291.31;10533178;28;20225;-71
2023/08/09 11:31:58;;;;;;;0.80;0.75;;;;;;;-146.07;100.00;70291.31;10531043;28;20213;-71
2023/08/09 11:36:58;;;;;;;1.92;1.08;;;;;;;-146.07;100.00;70291.31;10529270;28;20451;-74
2023/08/09 11:41:59;;;;;;;2.75;1.00;;;;;;;-146.07;100.00;70291.31;10530682;28;20032;-66
2023/08/09 11:47:01;;;;;;;3.60;1.20;;;;;;;-146.07;100.00;70291.31;10533166;28;20028;-66
2023/08/09 11:52:02;;;;;;;1.00;0.90;;;;;;;-146.07;100.00;70291.31;10533756;28;20047;-66
2023/08/09 11:57:07;;;;;;;1.80;1.17;;;;;;;-146.07;100.00;70291.31;10530990;28;20286;-65
2023/08/09 12:02:07;;;;;;;3.22;1.27;;;;;;;-146.07;100.00;70291.31;10533562;28;20562;-66
2023/08/09 12:07:09;;;;;;;1.50;1.33;;;;;;;-146.07;100.00;70291.31;10532911;28;20051;-65
2023/08/09 12:12:12;;;;;;;6.60;1.63;;;;;;;-146.07;100.00;70291.31;10537449;28;20273;-65
2023/08/09 12:17:33;;;;;;;2.13;1.30;;;;;;;-146.07;100.00;70291.31;10538448;28;20369;-65
2023/08/09 12:22:33;;;;;;;6.65;1.85;;;;;;;-146.07;100.00;70291.31;10538192;28;20063;-65
2023/08/09 12:27:34;;;;;;;2.35;1.40;;;;;;;-146.07;100.00;70291.31;10536883;28;20242;-65
2023/08/09 12:32:34;;;;;;;1.20;1.10;;;;;;;-146.07;100.00;70291.31;10523542;28;20377;-66
2023/08/09 12:37:35;;;;;;;1.13;0.80;;;;;;;-146.07;100.00;70291.31;10537761;28;20293;-66
2023/08/09 12:42:35;;;;;;;2.87;1.70;;;;;;;-146.07;100.00;70291.31;10538607;28;20024;-66
2023/08/09 12:47:35;;;;;;;2.42;1.20;;;;;;;-146.07;100.00;70291.31;10540002;28;20544;-66
2023/08/09 12:52:36;;;;;;;1.30;1.00;;;;;;;-146.07;100.00;70291.31;10537614;28;20028;-65
2023/08/09 12:57:36;;;;;;;2.53;1.20;;;;;;;-146.07;100.00;70291.31;10539753;28;20294;-65
2023/08/09 13:02:37;;;;;;;1.83;0.90;;;;;;;-146.07;100.00;70291.31;10535426;28;20028;-65
2023/08/09 13:07:37;;;;;;;1.33;1.10;;;;;;;-146.07;100.00;70291.31;10538577;28;20039;-65
2023/08/09 13:12:38;;;;;;;3.33;1.20;;;;;;;-146.07;100.00;70291.31;10536365;28;20352;-65
2023/08/09 13:17:38;;;;;;;2.27;1.00;;;;;;;-146.07;100.00;70291.31;10518328;28;20286;-66
2023/08/09 13:22:43;;;;;;;1.50;1.30;;;;;;;-146.07;100.00;70291.31;10514660;28;20310;-65
2023/08/09 13:27:44;;;;;;;0.93;0.90;;;;;;;-146.07;100.00;70291.31;10530737;28;20034;-65
2023/08/09 13:32:47;;;;;;;1.25;1.15;;;;;;;-146.07;100.00;70291.31;10514754;28;20110;-66
2023/08/09 13:37:47;;;;;;;1.73;1.10;;;;;;;-146.07;100.00;70291.31;10529999;28;20253;-65
2023/08/09 13:42:48;;;;;;;1.67;1.30;;;;;;;-146.07;100.00;70291.31;10532331;28;20108;-64
2023/08/09 13:47:48;;;;;;;4.00;1.63;;;;;;;-146.07;100.00;70291.31;10528607;28;20036;-65
2023/08/09 13:52:48;;;;;;;1.97;1.63;;;;;;;-146.07;100.00;70291.31;10529510;28;20471;-65
2023/08/09 13:57:49;;;;;;;1.40;1.30;;;;;;;-146.07;100.00;70291.31;10528089;28;20734;-65
2023/08/09 14:02:49;;;;;;;5.30;1.17;;;;;;;-146.07;100.00;70291.31;10532897;28;20043;-65
2023/08/09 14:07:50;;;;;;;3.90;1.13;;;;;;;-146.07;100.00;70291.31;10536011;28;20019;-66
2023/08/09 14:12:50;;;;;;;1.40;1.30;;;;;;;-146.07;100.00;70291.31;10543561;28;20019;-66
2023/08/09 14:17:51;;;;;;;1.60;1.10;;;;;;;-146.07;100.00;70291.31;10544253;28;20016;-66
2023/08/09 14:22:52;;;;;;;3.85;1.30;;;;;;;-146.07;100.00;70291.31;10529782;27;20046;-65
2023/08/09 14:27:53;;;;;;;1.58;1.20;;;;;;;-146.07;100.00;70291.31;10547370;27;20022;-66
2023/08/09 14:32:54;;;;;;;1.52;1.42;;;;;;;-146.07;100.00;70291.31;10547100;27;20341;-66
2023/08/09 14:37:54;;;;;;;2.63;1.65;;;;;;;-146.07;100.00;70291.31;10547749;27;20039;-66
2023/08/09 14:42:55;;;;;;;3.80;2.05;;;;;;;-146.07;100.00;70291.31;10550075;27;20397;-65
2023/08/09 14:47:55;;;;;;;3.67;1.50;;;;;;;-146.07;100.00;70291.31;10543601;28;20035;-66
2023/08/09 14:52:55;;;;;;;1.83;1.47;;;;;;;-146.07;100.00;70291.31;10546014;27;20023;-66
2023/08/09 14:57:58;;;;;;;1.00;0.90;;;;;;;-146.07;100.00;70291.31;10549732;27;20296;-66
2023/08/09 15:02:59;;;;;;;2.78;1.48;;;;;;;-146.07;100.00;70291.31;10549557;27;20317;-66
2023/08/09 15:07:59;;;;;;;1.30;1.20;;;;;;;-146.07;100.00;70291.31;10550480;27;20191;-65
2023/08/09 15:13:01;;;;;;;3.80;1.07;;;;;;;-146.07;100.00;70291.31;10544178;27;20241;-65
2023/08/09 15:18:03;;;;;;;1.58;1.48;;;;;;;-146.07;100.00;70291.31;10547368;27;20406;-66
2023/08/09 15:23:03;;;;;;;2.90;1.15;;;;;;;-146.07;100.00;70291.31;10542614;28;20036;-66
2023/08/09 15:28:04;;;;;;;1.27;1.17;;;;;;;-146.07;100.00;70291.31;10541894;28;20027;-65
2023/08/09 15:33:05;;;;;;;1.40;1.23;;;;;;;-146.07;100.00;70291.31;10542063;28;20015;-66
2023/08/09 15:38:05;;;;;;;3.57;1.30;;;;;;;-146.07;100.00;70291.31;10539536;28;20324;-66
2023/08/09 15:43:06;;;;;;;1.35;1.20;;;;;;;-146.07;100.00;70291.31;10521434;28;20016;-64
2023/08/09 15:48:06;;;;;;;1.50;1.17;;;;;;;-146.07;100.00;70291.31;10541948;28;20476;-66
2023/08/09 15:53:07;;;;;;;1.25;1.13;;;;;;;-146.07;100.00;70291.31;10540488;28;20277;-66
2023/08/09 15:58:07;;;;;;;2.10;1.53;;;;;;;-146.07;100.00;70291.31;10540552;28;20016;-66
2023/08/09 16:03:08;;;;;;;2.23;1.20;;;;;;;-146.07;100.00;70291.31;10540896;28;20285;-66
2023/08/09 16:08:09;;;;;;;1.42;1.20;;;;;;;-146.07;100.00;70291.31;10538965;28;20297;-65
2023/08/09 16:13:09;;;;;;;2.30;1.35;;;;;;;-146.07;100.00;70291.31;10539680;28;20051;-66
2023/08/09 16:18:10;;;;;;;1.45;1.35;;;;;;;-146.07;100.00;70291.31;10538123;28;20074;-67
2023/08/09 16:23:10;;;;;;;2.57;1.97;;;;;;;-146.07;100.00;70291.31;10539037;28;20099;-65
2023/08/09 16:28:11;;;;;;;1.48;1.20;;;;;;;-146.07;100.00;70291.31;10540045;28;20272;-66
2023/08/09 16:33:11;;;;;;;4.50;1.40;;;;;;;-146.07;100.00;70291.31;10521864;28;20243;-66
2023/08/09 16:38:12;;;;;;;3.08;2.10;;;;;;;-146.07;100.00;70291.31;10540619;28;20024;-66
2023/08/09 16:43:12;;;;;;;2.05;1.73;;;;;;;-146.07;100.00;70291.31;10544130;28;20040;-65
2023/08/09 16:48:13;;;;;;;3.47;1.60;;;;;;;-146.07;100.00;70291.31;10546999;28;20051;-66
2023/08/09 16:53:13;;;;;;;3.00;1.53;;;;;;;-146.07;100.00;70291.31;10551602;28;20587;-65
2023/08/09 16:58:14;;;;;;;3.28;2.05;;;;;;;-146.07;100.00;70291.31;10548069;28;20542;-66
2023/08/09 17:03:14;;;;;;;1.90;1.80;;;;;;;-146.07;100.00;70291.31;10547291;28;20031;-65
2023/08/09 17:08:15;;;;;;;7.30;2.20;;;;;;;-146.07;100.00;70291.31;10547437;28;20027;-66
2023/08/09 17:13:16;;;;;;;3.22;1.33;;;;;;;-146.07;100.00;70291.31;10529100;28;20024;-64
2023/08/09 17:18:16;;;;;;;2.63;1.70;;;;;;;-146.07;100.00;70291.31;10547960;28;20031;-66
2023/08/09 17:23:20;;;;;;;5.90;2.33;;;;;;;-146.07;100.00;70291.31;10546802;28;20654;-65
2023/08/09 17:28:20;;;;;;;12.95;2.78;;;;;;;-146.07;100.00;70291.31;10547995;28;20198;-66
2023/08/09 17:33:21;;;;;;;1.80;1.70;;;;;;;-146.07;100.00;70291.31;10547726;28;20444;-66
2023/08/09 17:38:26;;;;;;;2.27;1.60;;;;;;;-146.07;100.00;70291.31;10546700;28;20035;-64
2023/08/09 17:43:26;;;;;;;2.03;1.50;;;;;;;-146.07;100.00;70291.31;10546060;28;20304;-65
2023/08/09 17:48:26;;;;;;;7.63;1.67;;;;;;;-146.07;100.00;70291.31;10546863;28;20034;-65
2023/08/09 17:53:27;;;;;;;4.40;1.50;;;;;;;-146.07;100.00;70291.31;10543915;28;20302;-65
2023/08/09 17:58:28;;;;;;;1.40;1.30;;;;;;;-146.07;100.00;70291.31;10544270;28;20265;-66
2023/08/09 18:03:28;;;;;;;2.30;1.90;;;;;;;-146.07;100.00;70291.31;10529854;28;20281;-65
2023/08/09 18:08:28;;;;;;;3.33;1.97;;;;;;;-146.07;100.00;70291.31;10547853;28;20043;-65
2023/08/09 18:13:29;;;;;;;6.55;2.17;;;;;;;-146.07;100.00;70291.31;10530524;28;20618;-65
2023/08/09 18:18:29;;;;;;;3.17;1.63;;;;;;;-146.07;100.00;70291.31;10542568;28;20372;-67
2023/08/09 18:23:30;;;;;;;5.00;1.80;;;;;;;-146.07;100.00;70291.31;10528448;28;20055;-66
2023/08/09 18:28:31;;;;;;;3.92;2.47;;;;;;;-146.07;100.00;70291.31;10541379;28;20508;-66
2023/08/09 18:33:32;;;;;;;2.47;1.88;;;;;;;-146.07;100.00;70291.31;10544511;28;20129;-65
2023/08/09 18:38:32;;;;;;;2.73;2.20;;;;;;;-146.07;100.00;70291.31;10541579;28;20031;-65
2023/08/09 18:43:32;;;;;;;2.42;2.15;;;;;;;-146.07;100.00;70291.31;10545057;28;20296;-75
2023/08/09 18:48:33;;;;;;;9.32;4.43;;;;;;;-146.07;100.00;70291.31;10549228;27;20151;-73
2023/08/09 18:53:34;;;;;;;3.92;2.30;;;;;;;-146.07;100.00;70291.31;10541953;28;20035;-72
2023/08/09 18:58:34;;;;;;;2.60;2.13;;;;;;;-146.07;100.00;70291.31;10543222;28;20310;-74
2023/08/09 19:03:36;;;;;;;5.35;2.25;;;;;;;-146.07;100.00;70291.31;10550110;28;20333;-73
2023/08/09 19:08:37;;;;;;;6.03;2.00;;;;;;;-146.07;100.00;70291.31;10546177;28;20221;-73
2023/08/09 19:13:37;;;;;;;4.07;2.55;;;;;;;-146.07;100.00;70291.31;10541050;28;20042;-74
2023/08/09 19:18:38;;;;;;;2.72;1.67;;;;;;;-146.07;100.00;70291.31;10541651;28;20259;-71
2023/08/09 19:23:38;;;;;;;3.80;1.67;;;;;;;-146.07;100.00;70291.31;10540717;28;20322;-74
2023/08/09 19:28:39;;;;;;;3.70;2.33;;;;;;;-146.07;100.00;70291.31;10525770;28;20160;-73
2023/08/09 19:33:40;;;;;;;4.47;1.60;;;;;;;-146.07;100.00;70291.31;10541482;28;20019;-73
2023/08/09 19:38:40;;;;;;;4.30;1.88;;;;;;;-146.07;100.00;70291.31;10544434;28;21111;-73
2023/08/09 19:43:41;;;;;;;2.78;1.58;;;;;;;-146.07;100.00;70291.31;10527467;28;20066;-73
2023/08/09 19:48:42;;;;;;;2.67;1.45;;;;;;;-146.07;100.00;70291.31;10540110;28;20037;-76
2023/08/09 19:53:43;;;;;;;3.13;1.50;;;;;;;-146.07;100.00;70291.31;10526019;28;20221;-72
2023/08/09 19:58:43;;;;;;;2.78;1.60;;;;;;;-146.07;100.00;70291.31;10542158;28;20027;-69
2023/08/09 20:03:44;;;;;;;4.25;2.85;;;;;;;-146.07;100.00;70291.31;10528118;28;20116;-72
2023/08/09 20:08:44;;;;;;;2.72;1.77;;;;;;;-146.07;100.00;70291.31;10542272;28;20039;-72
2023/08/09 20:13:45;;;;;;;2.60;1.40;;;;;;;-146.07;100.00;70291.31;10526141;28;20140;-67
2023/08/09 20:18:45;;;;;;;2.33;1.70;;;;;;;-146.07;100.00;70291.31;10538117;28;20032;-66
2023/08/09 20:23:46;;;;;;;1.93;1.60;;;;;;;-146.07;100.00;70291.31;10548297;28;20083;-66
2023/08/09 20:28:47;;;;;;;1.60;1.50;;;;;;;-146.07;100.00;70291.31;10554016;28;20281;-74
2023/08/09 20:33:47;;;;;;;2.65;1.80;;;;;;;-146.07;100.00;70291.31;10550203;28;20107;-75
2023/08/09 20:38:48;;;;;;;5.15;1.75;;;;;;;-146.07;100.00;70291.31;10547252;28;20081;-67
2023/08/09 20:43:48;;;;;;;6.67;2.00;;;;;;;-146.07;100.00;70291.31;10549126;28;20456;-67
2023/08/09 20:48:48;;;;;;;2.23;1.73;;;;;;;-146.07;100.00;70291.31;10549131;28;20281;-68
2023/08/09 20:53:50;;;;;;;4.03;1.52;;;;;;;-146.07;100.00;70291.31;10549170;28;20036;-67
2023/08/09 20:58:50;;;;;;;1.90;1.58;;;;;;;-146.07;100.00;70291.31;10532957;28;20221;-68
2023/08/09 21:03:51;;;;;;;4.63;2.30;;;;;;;-146.07;100.00;70291.31;10552194;28;20036;-66
2023/08/09 21:08:52;;;;;;;3.67;1.63;;;;;;;-146.07;100.00;70291.31;10549077;28;20371;-71
2023/08/09 21:13:52;;;;;;;2.70;1.88;;;;;;;-146.07;100.00;70291.31;10550272;28;20300;-72
2023/08/09 21:18:53;;;;;;;3.28;1.75;;;;;;;-146.07;100.00;70291.31;10531948;28;20037;-68
2023/08/09 21:23:53;;;;;;;2.43;1.40;;;;;;;-146.07;100.00;70291.31;10554802;28;20044;-70
2023/08/09 21:28:54;;;;;;;2.03;1.30;;;;;;;-146.07;100.00;70291.31;10551693;28;20619;-70
2023/08/09 21:33:54;;;;;;;1.90;1.52;;;;;;;-146.07;100.00;70291.31;10549377;28;20337;-74
2023/08/09 21:38:55;;;;;;;1.33;1.23;;;;;;;-146.07;100.00;70291.31;10551287;28;20436;-76
2023/08/09 21:43:55;;;;;;;1.92;1.55;;;;;;;-146.07;100.00;70291.31;10549275;28;20030;-76
2023/08/09 21:48:56;;;;;;;2.13;1.60;;;;;;;-146.07;100.00;70291.31;10534505;28;20020;-67
2023/08/09 21:53:57;;;;;;;1.50;1.35;;;;;;;-146.07;100.00;70291.31;10548297;28;20039;-73
2023/08/09 21:58:57;;;;;;;1.50;1.33;;;;;;;-146.07;100.00;70291.31;10546802;28;20961;-71
2023/08/09 22:03:58;;;;;;;3.67;1.80;;;;;;;-146.07;100.00;70291.31;10547419;28;20035;-71
2023/08/09 22:08:58;;;;;;;2.63;1.23;;;;;;;-146.07;100.00;70291.31;10547183;28;20024;-70
2023/08/09 22:14:00;;;;;;;1.95;1.63;;;;;;;-146.07;100.00;70291.31;10547052;28;20039;-70
2023/08/09 22:19:01;;;;;;;1.42;1.33;;;;;;;-146.07;100.00;70291.31;10549033;28;20027;-73
2023/08/09 22:24:02;;;;;;;3.22;1.80;;;;;;;-146.07;100.00;70291.31;10551266;28;20043;-72
2023/08/09 22:29:03;;;;;;;4.15;1.52;;;;;;;-146.07;100.00;70291.31;10548764;28;20047;-72
2023/08/09 22:34:04;;;;;;;3.00;1.58;;;;;;;-146.07;100.00;70291.31;10561736;28;20329;-70